createdAt,value
2018-09-24T00:00:45.073Z,11.08
2018-09-24T00:03:14.447Z,11.05
2018-09-24T00:05:43.887Z,11.05
2018-09-24T00:08:13.319Z,11.02
2018-09-24T00:10:42.701Z,11.00
2018-09-24T00:13:12.168Z,11.04
2018-09-24T00:15:41.609Z,11.04
2018-09-24T00:18:11.029Z,10.99
2018-09-24T00:20:40.432Z,10.94
2018-09-24T00:23:10.372Z,10.90
2018-09-24T00:25:39.807Z,10.92
2018-09-24T00:28:09.231Z,10.89
2018-09-24T00:30:39.153Z,10.87
2018-09-24T00:33:08.754Z,10.79
2018-09-24T00:35:38.207Z,10.71
2018-09-24T00:38:07.809Z,10.65
2018-09-24T00:40:37.387Z,10.67
2018-09-24T00:43:07.470Z,10.66
2018-09-24T00:45:37.284Z,10.64
2018-09-24T00:48:06.852Z,10.65
2018-09-24T00:50:37.521Z,10.63
2018-09-24T00:53:07.744Z,10.50
2018-09-24T00:55:37.240Z,10.58
2018-09-24T00:58:07.109Z,10.52
2018-09-24T01:00:36.726Z,10.47
2018-09-24T01:03:06.220Z,10.39
2018-09-24T01:05:35.743Z,10.39
2018-09-24T01:08:05.203Z,10.42
2018-09-24T01:10:34.729Z,10.42
2018-09-24T01:13:04.269Z,10.46
2018-09-24T01:15:34.684Z,10.45
2018-09-24T01:18:04.101Z,10.46
2018-09-24T01:20:33.584Z,10.47
2018-09-24T01:23:03.174Z,10.44
2018-09-24T01:25:32.737Z,10.46
2018-09-24T01:28:02.344Z,10.48
2018-09-24T01:30:31.944Z,10.45
2018-09-24T01:33:01.503Z,10.48
2018-09-24T01:35:30.987Z,10.45
2018-09-24T01:38:00.525Z,10.44
2018-09-24T01:40:29.970Z,10.42
2018-09-24T01:42:59.486Z,10.40
2018-09-24T01:45:29.110Z,10.36
2018-09-24T01:47:58.636Z,10.36
2018-09-24T01:50:28.104Z,10.32
2018-09-24T01:53:04.941Z,10.30
2018-09-24T01:55:34.427Z,10.34
2018-09-24T01:58:03.937Z,10.29
2018-09-24T02:00:33.367Z,10.23
2018-09-24T02:03:02.865Z,10.09
2018-09-24T02:05:32.475Z,10.05
2018-09-24T02:08:02.032Z,10.11
2018-09-24T02:10:31.605Z,10.17
2018-09-24T02:13:01.093Z,10.15
2018-09-24T02:15:32.012Z,10.12
2018-09-24T02:18:02.477Z,10.12
2018-09-24T02:20:32.000Z,10.07
2018-09-24T02:23:01.415Z,10.07
2018-09-24T02:25:30.938Z,10.00
2018-09-24T02:28:00.367Z,9.95
2018-09-24T02:30:29.842Z,9.94
2018-09-24T02:32:59.349Z,9.87
2018-09-24T02:35:28.819Z,9.87
2018-09-24T02:37:58.237Z,9.74
2018-09-24T02:40:27.705Z,9.76
2018-09-24T02:42:57.144Z,9.68
2018-09-24T02:45:26.693Z,9.56
2018-09-24T02:47:57.064Z,9.49
2018-09-24T02:50:37.139Z,9.48
2018-09-24T02:53:07.655Z,9.50
2018-09-24T02:55:37.108Z,9.51
2018-09-24T02:58:06.530Z,9.48
2018-09-24T03:00:36.032Z,9.46
2018-09-24T03:03:12.573Z,9.47
2018-09-24T03:05:43.018Z,9.46
2018-09-24T03:08:13.817Z,9.39
2018-09-24T03:10:43.580Z,9.41
2018-09-24T03:13:12.986Z,9.42
2018-09-24T03:15:42.736Z,9.42
2018-09-24T03:18:12.251Z,9.38
2018-09-24T03:20:43.706Z,9.39
2018-09-24T03:23:13.188Z,9.37
2018-09-24T03:25:43.233Z,9.37
2018-09-24T03:28:12.677Z,9.35
2018-09-24T03:30:43.049Z,9.32
2018-09-24T03:33:12.487Z,9.34
2018-09-24T03:35:41.978Z,9.31
2018-09-24T03:38:11.379Z,9.33
2018-09-24T03:40:40.850Z,9.33
2018-09-24T03:43:10.292Z,9.32
2018-09-24T03:45:39.681Z,9.23
2018-09-24T03:48:09.142Z,9.23
2018-09-24T03:50:38.557Z,9.18
2018-09-24T03:53:07.991Z,9.10
2018-09-24T03:55:37.508Z,9.06
2018-09-24T03:58:07.466Z,9.05
2018-09-24T04:00:37.012Z,9.04
2018-09-24T04:03:06.979Z,9.03
2018-09-24T04:05:41.592Z,9.02
2018-09-24T04:08:16.669Z,8.96
2018-09-24T04:10:51.422Z,8.92
2018-09-24T04:13:26.139Z,8.90
2018-09-24T04:16:00.520Z,8.90
2018-09-24T04:18:34.941Z,8.86
2018-09-24T04:21:09.547Z,8.83
2018-09-24T04:23:44.143Z,8.79
2018-09-24T04:26:18.912Z,8.79
2018-09-24T04:28:53.603Z,8.77
2018-09-24T04:31:28.114Z,8.74
2018-09-24T04:34:02.573Z,8.70
2018-09-24T04:36:37.302Z,8.65
2018-09-24T04:39:14.388Z,8.69
2018-09-24T04:41:48.989Z,8.71
2018-09-24T04:44:23.561Z,8.69
2018-09-24T04:46:58.262Z,8.65
2018-09-24T04:49:32.769Z,8.65
2018-09-24T04:52:07.586Z,8.62
2018-09-24T04:54:42.162Z,8.57
2018-09-24T04:57:16.726Z,8.52
2018-09-24T04:59:52.313Z,8.49
2018-09-24T05:02:27.082Z,8.47
2018-09-24T05:05:01.731Z,8.45
2018-09-24T05:07:36.470Z,8.45
2018-09-24T05:10:11.194Z,8.41
2018-09-24T05:12:45.932Z,8.40
2018-09-24T05:15:20.505Z,8.36
2018-09-24T05:17:55.052Z,8.33
2018-09-24T05:20:29.842Z,8.28
2018-09-24T05:23:04.354Z,8.31
2018-09-24T05:25:39.043Z,8.28
2018-09-24T05:28:13.527Z,8.28
2018-09-24T05:30:49.037Z,8.26
2018-09-24T05:33:23.643Z,8.19
2018-09-24T05:35:58.211Z,8.16
2018-09-24T05:38:32.843Z,8.19
2018-09-24T05:41:07.459Z,8.18
2018-09-24T05:43:41.796Z,8.19
2018-09-24T05:46:16.454Z,8.17
2018-09-24T05:48:51.043Z,8.16
2018-09-24T05:51:25.580Z,8.16
2018-09-24T05:54:00.105Z,8.18
2018-09-24T05:56:34.614Z,8.21
2018-09-24T05:59:09.117Z,8.21
2018-09-24T06:01:43.861Z,8.23
2018-09-24T06:04:18.432Z,8.26
2018-09-24T06:06:53.399Z,8.23
2018-09-24T06:09:28.039Z,8.22
2018-09-24T06:12:02.518Z,8.21
2018-09-24T06:14:37.208Z,8.27
2018-09-24T06:17:11.831Z,8.28
2018-09-24T06:19:46.424Z,8.21
2018-09-24T06:22:21.127Z,8.21
2018-09-24T06:24:55.775Z,8.25
2018-09-24T06:27:30.920Z,8.25
2018-09-24T06:30:05.450Z,8.29
2018-09-24T06:32:39.812Z,8.35
2018-09-24T06:35:14.042Z,8.30
2018-09-24T06:37:48.489Z,8.38
2018-09-24T06:40:23.141Z,8.43
2018-09-24T06:42:57.711Z,8.47
2018-09-24T06:45:32.246Z,8.52
2018-09-24T06:48:06.886Z,8.55
2018-09-24T06:50:41.394Z,8.59
2018-09-24T06:53:15.881Z,8.65
2018-09-24T06:55:50.256Z,8.71
2018-09-24T06:58:24.931Z,8.73
2018-09-24T07:00:59.463Z,8.78
2018-09-24T07:03:34.159Z,8.81
2018-09-24T07:06:08.804Z,8.82
2018-09-24T07:08:43.332Z,8.87
2018-09-24T07:11:17.866Z,8.91
2018-09-24T07:13:52.406Z,8.96
2018-09-24T07:16:26.792Z,8.99
2018-09-24T07:19:01.273Z,9.03
2018-09-24T07:21:35.942Z,9.07
2018-09-24T07:24:10.527Z,9.10
2018-09-24T07:26:45.151Z,9.15
2018-09-24T07:29:19.816Z,9.21
2018-09-24T07:31:54.331Z,9.24
2018-09-24T07:34:29.919Z,9.32
2018-09-24T07:37:04.444Z,9.37
2018-09-24T07:39:39.100Z,9.41
2018-09-24T07:42:13.631Z,9.44
2018-09-24T07:44:48.224Z,9.48
2018-09-24T07:47:22.723Z,9.55
2018-09-24T07:49:58.082Z,9.60
2018-09-24T07:52:32.538Z,9.66
2018-09-24T07:55:07.009Z,9.70
2018-09-24T07:57:42.657Z,9.63
2018-09-24T08:00:17.293Z,9.65
2018-09-24T08:02:51.812Z,9.71
2018-09-24T08:05:26.348Z,9.81
2018-09-24T08:08:00.783Z,9.88
2018-09-24T08:10:35.296Z,9.92
2018-09-24T08:13:09.837Z,9.96
2018-09-24T08:15:44.303Z,10.02
2018-09-24T08:18:19.470Z,10.07
2018-09-24T08:20:54.040Z,10.13
2018-09-24T08:23:28.609Z,10.21
2018-09-24T08:26:03.073Z,10.32
2018-09-24T08:28:38.688Z,10.39
2018-09-24T08:31:13.377Z,10.40
2018-09-24T08:33:48.049Z,10.43
2018-09-24T08:36:22.562Z,10.46
2018-09-24T08:38:57.156Z,10.51
2018-09-24T08:41:31.694Z,10.52
2018-09-24T08:44:06.120Z,10.58
2018-09-24T08:46:40.679Z,10.65
2018-09-24T08:49:15.149Z,10.67
2018-09-24T08:51:49.654Z,10.74
2018-09-24T08:54:24.286Z,10.83
2018-09-24T08:56:58.879Z,10.85
2018-09-24T08:59:33.378Z,10.86
2018-09-24T09:02:07.888Z,10.90
2018-09-24T09:04:42.295Z,10.90
2018-09-24T09:07:16.854Z,10.94
2018-09-24T09:09:51.415Z,10.98
2018-09-24T09:12:25.856Z,10.97
2018-09-24T09:15:00.449Z,11.04
2018-09-24T09:17:35.478Z,11.06
2018-09-24T09:20:10.252Z,11.11
2018-09-24T09:22:44.767Z,11.17
2018-09-24T09:25:19.164Z,11.24
2018-09-24T09:27:53.809Z,11.31
2018-09-24T09:30:29.464Z,11.38
2018-09-24T09:33:03.836Z,11.45
2018-09-24T09:35:38.385Z,11.50
2018-09-24T09:38:13.822Z,11.56
2018-09-24T09:40:48.371Z,11.64
2018-09-24T09:43:22.851Z,11.63
2018-09-24T09:45:57.510Z,11.66
2018-09-24T09:48:31.990Z,11.72
2018-09-24T09:51:06.642Z,11.75
2018-09-24T09:53:41.112Z,11.74
2018-09-24T09:56:15.606Z,11.75
2018-09-24T09:58:50.133Z,11.78
2018-09-24T10:01:24.608Z,11.84
2018-09-24T10:03:59.084Z,11.89
2018-09-24T10:06:33.669Z,11.93
2018-09-24T10:09:08.315Z,11.96
2018-09-24T10:11:42.795Z,11.91
2018-09-24T10:14:17.170Z,11.95
2018-09-24T10:16:51.791Z,12.00
2018-09-24T10:19:26.777Z,12.07
2018-09-24T10:22:01.249Z,12.15
2018-09-24T10:24:35.817Z,12.18
2018-09-24T10:27:11.334Z,12.24
2018-09-24T10:29:45.965Z,12.29
2018-09-24T10:32:20.634Z,12.29
2018-09-24T10:34:55.041Z,12.30
2018-09-24T10:37:30.861Z,12.36
2018-09-24T10:40:05.247Z,12.38
2018-09-24T10:42:39.879Z,12.43
2018-09-24T10:45:14.537Z,12.42
2018-09-24T10:47:49.056Z,12.42
2018-09-24T10:50:23.494Z,12.53
2018-09-24T10:52:58.049Z,12.58
2018-09-24T10:55:32.598Z,12.60
2018-09-24T10:58:07.244Z,12.65
2018-09-24T11:00:42.165Z,12.72
2018-09-24T11:03:16.710Z,12.74
2018-09-24T11:05:51.231Z,12.72
2018-09-24T11:08:26.683Z,12.78
2018-09-24T11:11:01.305Z,12.73
2018-09-24T11:13:35.893Z,12.64
2018-09-24T11:16:10.623Z,12.69
2018-09-24T11:18:44.911Z,12.75
2018-09-24T11:21:20.007Z,12.81
2018-09-24T11:23:54.841Z,12.90
2018-09-24T11:29:03.822Z,13.00
2018-09-24T11:31:38.326Z,13.00
2018-09-24T11:34:13.082Z,13.00
2018-09-24T11:36:47.724Z,13.04
2018-09-24T11:39:22.357Z,13.02
2018-09-24T11:41:56.929Z,13.15
2018-09-24T11:44:31.356Z,13.16
2018-09-24T11:47:05.933Z,13.27
2018-09-24T11:49:40.391Z,13.35
2018-09-24T11:52:14.971Z,13.45
2018-09-24T11:54:49.465Z,13.48
2018-09-24T11:57:23.873Z,13.54
2018-09-24T11:59:58.538Z,13.51
2018-09-24T12:02:33.139Z,13.55
2018-09-24T12:05:07.694Z,13.57
2018-09-24T12:07:42.174Z,13.62
2018-09-24T12:10:16.677Z,13.63
2018-09-24T12:12:51.091Z,13.64
2018-09-24T12:15:25.581Z,13.63
2018-09-24T12:18:00.257Z,13.64
2018-09-24T12:20:34.786Z,13.67
2018-09-24T12:23:09.420Z,13.67
2018-09-24T12:25:44.034Z,13.71
2018-09-24T12:28:18.611Z,13.77
2018-09-24T12:30:52.996Z,13.85
2018-09-24T12:33:27.715Z,13.87
2018-09-24T12:36:02.310Z,13.89
2018-09-24T12:38:36.961Z,13.88
2018-09-24T12:41:11.704Z,13.90
2018-09-24T12:43:46.214Z,13.92
2018-09-24T12:46:20.732Z,13.91
2018-09-24T12:48:56.388Z,13.98
2018-09-24T12:51:31.014Z,14.02
2018-09-24T12:54:05.653Z,14.11
2018-09-24T12:56:40.291Z,14.14
2018-09-24T12:59:14.793Z,14.20
2018-09-24T13:01:50.299Z,14.14
2018-09-24T13:04:24.831Z,14.19
2018-09-24T13:06:59.347Z,14.22
2018-09-24T13:09:34.004Z,14.25
2018-09-24T13:12:08.399Z,14.25
2018-09-24T13:14:42.963Z,14.19
2018-09-24T13:17:17.493Z,14.23
2018-09-24T13:19:51.998Z,14.22
2018-09-24T13:22:26.343Z,14.26
2018-09-24T13:25:01.128Z,14.27
2018-09-24T13:27:35.931Z,14.33
2018-09-24T13:30:10.861Z,14.33
2018-09-24T13:32:45.552Z,14.34
2018-09-24T13:35:21.322Z,14.41
2018-09-24T13:37:56.425Z,14.42
2018-09-24T13:40:31.080Z,14.41
2018-09-24T13:43:06.009Z,14.52
2018-09-24T13:45:42.788Z,14.58
2018-09-24T13:48:17.720Z,14.68
2018-09-24T13:50:53.615Z,14.89
2018-09-24T13:53:30.952Z,15.28
2018-09-24T13:56:05.827Z,15.67
2018-09-24T13:58:40.668Z,15.97
2018-09-24T14:01:15.985Z,16.33
2018-09-24T14:03:50.487Z,16.28
2018-09-24T14:06:25.239Z,16.18
2018-09-24T14:08:59.973Z,16.02
2018-09-24T14:11:34.963Z,16.04
2018-09-24T14:14:09.551Z,15.92
2018-09-24T14:16:44.372Z,15.87
2018-09-24T14:19:21.481Z,15.86
2018-09-24T14:21:56.354Z,15.87
2018-09-24T14:24:31.390Z,15.89
2018-09-24T14:27:07.254Z,15.87
2018-09-24T14:29:45.527Z,15.82
2018-09-24T14:32:20.354Z,15.90
2018-09-24T14:34:55.127Z,15.93
2018-09-24T14:37:29.986Z,15.91
2018-09-24T14:40:04.719Z,15.84
2018-09-24T14:42:39.583Z,15.89
2018-09-24T14:45:14.345Z,15.90
2018-09-24T14:47:50.274Z,16.05
2018-09-24T14:50:24.899Z,16.18
2018-09-24T14:53:00.809Z,16.10
2018-09-24T14:55:35.481Z,16.16
2018-09-24T14:58:15.355Z,16.01
2018-09-24T15:00:50.231Z,16.00
2018-09-24T15:03:26.592Z,15.96
2018-09-24T15:06:01.348Z,15.86
2018-09-24T15:08:36.047Z,15.94
2018-09-24T15:11:10.609Z,15.88
2018-09-24T15:13:45.232Z,15.87
2018-09-24T15:16:19.808Z,15.78
2018-09-24T15:18:54.364Z,15.80
2018-09-24T15:21:29.003Z,15.81
2018-09-24T15:24:03.399Z,15.84
2018-09-24T15:26:38.053Z,15.87
2018-09-24T15:29:12.631Z,15.92
2018-09-24T15:31:47.257Z,15.94
2018-09-24T15:34:21.956Z,15.95
2018-09-24T15:36:56.592Z,15.93
2018-09-24T15:39:31.240Z,15.90
2018-09-24T15:42:05.893Z,15.81
2018-09-24T15:44:40.567Z,15.81
2018-09-24T15:47:15.144Z,15.71
2018-09-24T15:49:49.855Z,15.58
2018-09-24T15:52:24.521Z,15.53
2018-09-24T15:54:58.997Z,15.45
2018-09-24T15:57:33.677Z,15.43
2018-09-24T16:00:08.179Z,15.41
2018-09-24T16:02:42.883Z,15.40
2018-09-24T16:05:17.350Z,15.30
2018-09-24T16:07:51.907Z,15.30
2018-09-24T16:10:26.413Z,15.24
2018-09-24T16:13:01.073Z,15.11
2018-09-24T16:15:35.556Z,15.07
2018-09-24T16:18:10.236Z,15.00
2018-09-24T16:20:45.693Z,15.01
2018-09-24T16:23:20.099Z,14.95
2018-09-24T16:25:54.490Z,14.90
2018-09-24T16:28:28.857Z,14.73
2018-09-24T16:31:03.462Z,14.80
2018-09-24T16:33:37.990Z,14.80
2018-09-24T16:36:12.493Z,14.82
2018-09-24T16:38:47.029Z,14.78
2018-09-24T16:41:21.597Z,14.73
2018-09-24T16:43:56.189Z,14.60
2018-09-24T16:46:30.882Z,14.52
2018-09-24T16:49:05.571Z,14.51
2018-09-24T16:51:40.206Z,14.49
2018-09-24T16:54:14.781Z,14.45
2018-09-24T16:56:49.351Z,14.36
2018-09-24T16:59:24.029Z,14.39
2018-09-24T17:01:58.551Z,14.35
2018-09-24T17:04:36.651Z,14.24
2018-09-24T17:07:11.338Z,14.17
2018-09-24T17:09:46.180Z,14.11
2018-09-24T17:12:21.161Z,14.03
2018-09-24T17:14:58.192Z,14.05
2018-09-24T17:17:35.067Z,13.99
2018-09-24T17:20:19.318Z,13.93
2018-09-24T17:22:54.868Z,13.87
2018-09-24T17:25:29.574Z,13.82
2018-09-24T17:28:04.096Z,13.80
2018-09-24T17:30:38.578Z,13.71
2018-09-24T17:33:13.143Z,13.67
2018-09-24T17:35:47.707Z,13.64
2018-09-24T17:38:22.382Z,13.64
2018-09-24T17:40:57.395Z,13.61
2018-09-24T17:43:32.346Z,13.59
2018-09-24T17:46:07.194Z,13.50
2018-09-24T17:48:41.819Z,13.53
2018-09-24T17:51:16.393Z,13.54
2018-09-24T17:53:50.948Z,13.47
2018-09-24T17:56:25.660Z,13.48
2018-09-24T17:59:00.113Z,13.42
2018-09-24T18:01:34.591Z,13.37
2018-09-24T18:04:09.075Z,13.33
2018-09-24T18:06:43.699Z,13.28
2018-09-24T18:09:18.215Z,13.26
2018-09-24T18:11:52.807Z,13.26
2018-09-24T18:14:27.296Z,13.25
2018-09-24T18:17:01.760Z,13.27
2018-09-24T18:19:36.443Z,13.26
2018-09-24T18:22:11.254Z,13.21
2018-09-24T18:24:45.996Z,13.18
2018-09-24T18:27:20.744Z,13.16
2018-09-24T18:29:55.434Z,13.12
2018-09-24T18:32:30.095Z,13.02
2018-09-24T18:35:04.644Z,12.98
2018-09-24T18:37:39.251Z,12.99
2018-09-24T18:40:13.893Z,12.91
2018-09-24T18:42:48.550Z,12.92
2018-09-24T18:45:23.208Z,12.92
2018-09-24T18:47:57.713Z,12.89
2018-09-24T18:50:32.295Z,12.85
2018-09-24T18:53:06.850Z,12.81
2018-09-24T18:55:41.333Z,12.83
2018-09-24T18:58:15.848Z,12.79
2018-09-24T19:00:50.442Z,12.79
2018-09-24T19:03:25.150Z,12.74
2018-09-24T19:05:59.652Z,12.72
2018-09-24T19:08:34.243Z,12.63
2018-09-24T19:11:08.862Z,12.63
2018-09-24T19:13:43.465Z,12.60
2018-09-24T19:16:18.122Z,12.56
2018-09-24T19:18:52.760Z,12.56
2018-09-24T19:21:27.306Z,12.51
2018-09-24T19:24:02.007Z,12.45
2018-09-24T19:26:36.722Z,12.43
2018-09-24T19:29:13.200Z,12.37
2018-09-24T19:31:47.915Z,12.32
2018-09-24T19:34:22.435Z,12.27
2018-09-24T19:36:57.097Z,12.18
2018-09-24T19:39:31.578Z,12.10
2018-09-24T19:42:06.072Z,11.99
2018-09-24T19:44:40.823Z,11.90
2018-09-24T19:47:15.566Z,11.85
2018-09-24T19:49:50.228Z,11.75
2018-09-24T19:52:24.697Z,11.70
2018-09-24T19:54:59.394Z,11.66
2018-09-24T19:57:34.012Z,11.58
2018-09-24T20:00:08.730Z,11.51
2018-09-24T20:02:43.428Z,11.41
2018-09-24T20:05:18.139Z,11.37
2018-09-24T20:07:52.732Z,11.31
2018-09-24T20:10:27.336Z,11.26
2018-09-24T20:13:02.532Z,11.22
2018-09-24T20:15:37.228Z,11.16
2018-09-24T20:18:12.659Z,11.13
2018-09-24T20:20:47.105Z,11.04
2018-09-24T20:23:21.689Z,11.02
2018-09-24T20:25:56.323Z,10.99
2018-09-24T20:28:30.698Z,10.90
2018-09-24T20:31:05.375Z,10.87
2018-09-24T20:33:40.640Z,10.84
2018-09-24T20:36:15.225Z,10.73
2018-09-24T20:38:50.348Z,10.69
2018-09-24T20:41:25.509Z,10.66
2018-09-24T20:44:00.707Z,10.70
2018-09-24T20:46:35.321Z,10.60
2018-09-24T20:49:10.004Z,10.52
2018-09-24T20:51:45.291Z,10.47
2018-09-24T20:54:19.886Z,10.32
2018-09-24T20:56:54.397Z,10.26
2018-09-24T20:59:28.959Z,10.25
2018-09-24T21:02:03.629Z,10.24
2018-09-24T21:04:38.399Z,10.20
2018-09-24T21:07:13.089Z,10.19
2018-09-24T21:09:55.172Z,10.13
2018-09-24T21:12:29.703Z,9.99
2018-09-24T21:15:04.378Z,9.95
2018-09-24T21:17:38.803Z,9.90
2018-09-24T21:20:13.351Z,9.83
2018-09-24T21:22:47.941Z,9.80
2018-09-24T21:25:22.491Z,9.71
2018-09-24T21:27:57.217Z,9.68
2018-09-24T21:30:31.893Z,9.64
2018-09-24T21:33:06.354Z,9.54
2018-09-24T21:35:40.877Z,9.51
2018-09-24T21:38:15.221Z,9.51
2018-09-24T21:40:49.790Z,9.49
2018-09-24T21:43:24.571Z,9.50
2018-09-24T21:45:59.201Z,9.48
2018-09-24T21:48:33.733Z,9.40
2018-09-24T21:51:08.374Z,9.39
2018-09-24T21:53:42.879Z,9.30
2018-09-24T21:56:17.381Z,9.23
2018-09-24T21:58:52.011Z,9.23
2018-09-24T22:01:26.640Z,9.16
2018-09-24T22:04:01.342Z,9.17
2018-09-24T22:06:36.005Z,9.26
2018-09-24T22:09:13.606Z,9.21
2018-09-24T22:11:49.004Z,9.10
2018-09-24T22:14:23.736Z,8.98
2018-09-24T22:16:58.309Z,8.86
2018-09-24T22:19:32.872Z,8.92
2018-09-24T22:22:08.206Z,8.89
2018-09-24T22:24:42.701Z,8.87
2018-09-24T22:27:17.263Z,8.84
2018-09-24T22:29:51.820Z,8.72
2018-09-24T22:32:26.384Z,8.68
2018-09-24T22:35:01.535Z,8.71
2018-09-24T22:37:36.079Z,8.67
2018-09-24T22:40:11.557Z,8.63
2018-09-24T22:42:46.064Z,8.55
2018-09-24T22:45:20.576Z,8.54
2018-09-24T22:47:55.282Z,8.56
2018-09-24T22:50:29.663Z,8.49
2018-09-24T22:53:04.287Z,8.37
2018-09-24T22:55:38.841Z,8.41
2018-09-24T22:58:13.545Z,8.34
2018-09-24T23:00:48.001Z,8.31
2018-09-24T23:03:22.690Z,8.28
2018-09-24T23:05:57.182Z,8.25
2018-09-24T23:08:31.844Z,8.22
2018-09-24T23:11:06.769Z,8.18
2018-09-24T23:13:41.444Z,8.09
2018-09-24T23:16:15.945Z,8.16
2018-09-24T23:18:50.620Z,8.16
2018-09-24T23:21:25.172Z,8.06
2018-09-24T23:23:59.743Z,8.03
2018-09-24T23:26:34.316Z,7.97
2018-09-24T23:29:08.916Z,7.98
2018-09-24T23:31:43.454Z,7.95
2018-09-24T23:34:18.010Z,7.91
2018-09-24T23:36:52.716Z,7.83
2018-09-24T23:39:27.436Z,7.74
2018-09-24T23:42:02.236Z,7.81
2018-09-24T23:44:36.809Z,7.89
2018-09-24T23:47:11.519Z,7.86
2018-09-24T23:49:45.957Z,7.82
2018-09-24T23:52:20.479Z,7.73
2018-09-24T23:54:55.041Z,7.72
2018-09-24T23:57:29.541Z,7.69
